Time;durP1;ratioP1;P1;durP2;ratioP2;P2;SDS_P1;SDS_P2;PMS_P1;PMS_P2;Temp;Humidity;BMP_temperature;BMP_pressure;BME280_temperature;BME280_humidity;BME280_pressure;Samples;Min_cycle;Max_cycle;Signal;HPM_P1;HPM_P2
2022/08/15 00:00:07;;;;;;;24.77;14.38;;;;;;;22.48;80.76;100143.16;5043456;28;20021;-67
2022/08/15 00:02:32;;;;;;;23.90;15.00;;;;;;;22.44;81.79;100144.28;5041216;28;20491;-67
2022/08/15 00:04:58;;;;;;;25.27;15.13;;;;;;;22.50;81.76;100135.88;5042102;28;20021;-65
2022/08/15 00:07:23;;;;;;;23.58;15.07;;;;;;;22.52;80.09;100125.03;5042400;28;20100;-66
2022/08/15 00:09:48;;;;;;;24.25;14.85;;;;;;;22.68;79.50;100125.88;5041278;28;20079;-66
2022/08/15 00:12:14;;;;;;;25.40;15.32;;;;;;;22.76;79.38;100129.00;5047148;28;20025;-65
2022/08/15 00:14:39;;;;;;;22.95;14.70;;;;;;;22.86;79.25;100132.00;5044045;28;20027;-66
2022/08/15 00:17:09;;;;;;;23.95;14.82;;;;;;;22.74;78.06;100135.44;5046474;28;20495;-63
2022/08/15 00:19:38;;;;;;;24.52;15.20;;;;;;;22.47;79.04;100146.84;5044056;28;20066;-65
2022/08/15 00:22:06;;;;;;;24.13;15.48;;;;;;;22.23;80.28;100141.81;5046713;28;20025;-66
2022/08/15 00:24:33;;;;;;;24.38;15.73;;;;;;;22.29;80.30;100138.81;5044713;28;20017;-67
2022/08/15 00:27:02;;;;;;;23.50;14.98;;;;;;;22.46;79.20;100142.41;5045496;28;20017;-61
2022/08/15 00:29:31;;;;;;;24.60;15.77;;;;;;;22.55;77.02;100135.63;5045029;28;20025;-67
2022/08/15 00:32:00;;;;;;;24.25;15.43;;;;;;;22.60;78.84;100129.00;5045389;28;20029;-66
2022/08/15 00:34:27;;;;;;;23.10;15.07;;;;;;;22.45;80.46;100125.38;5045046;28;20021;-67
2022/08/15 00:36:52;;;;;;;24.88;14.93;;;;;;;22.32;81.76;100139.56;5044357;28;20021;-67
2022/08/15 00:39:21;;;;;;;25.13;15.48;;;;;;;22.15;82.62;100133.31;5046155;28;20086;-67
2022/08/15 00:41:48;;;;;;;25.20;16.20;;;;;;;22.10;82.31;100130.00;5043785;28;20070;-67
2022/08/15 00:44:23;;;;;;;24.33;15.75;;;;;;;22.16;82.59;100126.09;5046578;28;20049;-67
2022/08/15 00:46:57;;;;;;;24.40;15.60;;;;;;;22.04;83.69;100130.34;5041308;28;20030;-67
2022/08/15 00:49:26;;;;;;;25.60;15.38;;;;;;;22.05;81.41;100132.09;5045379;28;20025;-66
2022/08/15 00:51:59;;;;;;;25.75;16.27;;;;;;;21.99;78.98;100133.28;5044382;28;20029;-66
2022/08/15 00:54:39;;;;;;;26.83;16.40;;;;;;;21.96;77.59;100137.94;5045027;28;20027;-67
2022/08/15 00:57:11;;;;;;;26.08;15.93;;;;;;;22.03;75.67;100137.53;5046045;28;20048;-67
2022/08/15 00:59:45;;;;;;;25.15;15.38;;;;;;;22.13;73.84;100132.50;5043738;28;20033;-67
2022/08/15 01:02:14;;;;;;;24.58;14.77;;;;;;;22.18;73.07;100138.53;5039096;28;20392;-66
2022/08/15 01:04:39;;;;;;;24.58;14.32;;;;;;;22.14;70.19;100134.25;5038785;28;20017;-66
2022/08/15 01:07:06;;;;;;;24.17;14.07;;;;;;;22.17;69.53;100139.47;5045614;28;20062;-67
2022/08/15 01:09:31;;;;;;;22.58;13.65;;;;;;;22.16;69.28;100135.03;5043922;28;20025;-65
2022/08/15 01:12:08;;;;;;;24.13;13.52;;;;;;;22.14;68.84;100136.94;5044701;28;20469;-66
2022/08/15 01:14:35;;;;;;;24.60;13.55;;;;;;;22.18;68.20;100132.25;5043729;28;20380;-66
2022/08/15 01:17:01;;;;;;;21.95;13.10;;;;;;;22.24;67.14;100127.41;5045042;28;20183;-62
2022/08/15 01:19:40;;;;;;;23.00;13.60;;;;;;;22.29;66.85;100129.84;5044423;28;20036;-64
2022/08/15 01:22:21;;;;;;;22.05;11.82;;;;;;;22.34;63.68;100129.59;5043270;28;20060;-62
2022/08/15 01:24:56;;;;;;;23.35;11.85;;;;;;;22.33;63.59;100119.81;5039912;28;20029;-65
2022/08/15 01:27:25;;;;;;;21.83;11.23;;;;;;;22.26;61.77;100121.94;5044751;28;20041;-67
2022/08/15 01:29:52;;;;;;;22.92;10.30;;;;;;;22.16;60.40;100126.94;5043411;28;20181;-65
2022/08/15 01:32:17;;;;;;;20.38;9.45;;;;;;;22.16;59.47;100124.25;5045550;28;20024;-63
2022/08/15 01:34:43;;;;;;;20.38;8.13;;;;;;;22.15;57.84;100121.66;5042411;28;20036;-65
2022/08/15 01:37:09;;;;;;;19.50;8.32;;;;;;;21.97;58.15;100118.16;5045613;28;20021;-66
2022/08/15 01:39:50;;;;;;;17.90;7.78;;;;;;;21.89;57.76;100121.28;5043062;28;20040;-68
2022/08/15 01:42:22;;;;;;;19.92;8.07;;;;;;;21.87;58.82;100121.38;5039288;28;20029;-67
2022/08/15 01:44:51;;;;;;;19.33;7.70;;;;;;;21.74;57.42;100123.84;5045041;28;20041;-68
2022/08/15 01:47:35;;;;;;;18.73;7.20;;;;;;;21.69;56.50;100127.72;5042679;28;20049;-68
2022/08/15 01:50:14;;;;;;;19.50;6.70;;;;;;;21.71;56.26;100133.88;5043597;28;20029;-68
2022/08/15 01:52:45;;;;;;;19.83;6.50;;;;;;;21.69;55.54;100136.66;5045507;28;20119;-68
2022/08/15 01:55:13;;;;;;;17.30;6.60;;;;;;;21.68;55.24;100144.81;5038030;28;20031;-68
2022/08/15 01:57:38;;;;;;;18.00;5.85;;;;;;;21.63;55.10;100137.00;5045011;28;20021;-68
2022/08/15 02:00:07;;;;;;;17.35;6.00;;;;;;;21.65;54.66;100131.53;5042983;28;20098;-69
2022/08/15 02:02:33;;;;;;;17.70;5.72;;;;;;;21.62;54.18;100126.31;5044424;28;20421;-70
2022/08/15 02:04:58;;;;;;;15.00;5.60;;;;;;;21.64;53.90;100127.09;5043113;28;20376;-70
2022/08/15 02:07:28;;;;;;;17.83;5.80;;;;;;;21.64;53.55;100137.84;5043353;28;20017;-69
2022/08/15 02:09:55;;;;;;;16.80;5.40;;;;;;;21.57;54.14;100132.78;5043733;28;20495;-70
2022/08/15 02:12:28;;;;;;;14.77;5.47;;;;;;;21.54;54.04;100132.97;5042637;28;20441;-69
2022/08/15 02:14:55;;;;;;;14.50;5.38;;;;;;;21.55;53.57;100132.03;5043636;28;20017;-69
2022/08/15 02:17:20;;;;;;;16.02;5.70;;;;;;;21.52;53.57;100129.50;5042398;28;20029;-69
2022/08/15 02:19:48;;;;;;;16.67;5.60;;;;;;;21.50;53.94;100125.97;5044657;28;20043;-69
2022/08/15 02:22:14;;;;;;;15.52;5.88;;;;;;;21.46;53.81;100128.91;5041674;28;20324;-69
2022/08/15 02:24:40;;;;;;;16.30;5.53;;;;;;;21.44;54.12;100130.81;5045061;28;20037;-61
2022/08/15 02:27:06;;;;;;;16.52;5.60;;;;;;;21.39;54.22;100128.34;5042140;28;20025;-66
2022/08/15 02:29:31;;;;;;;17.95;6.07;;;;;;;21.31;54.42;100128.75;5043952;28;20083;-66
2022/08/15 02:32:01;;;;;;;16.05;6.00;;;;;;;21.23;54.82;100128.25;5042992;28;20429;-60
2022/08/15 02:34:28;;;;;;;16.05;5.75;;;;;;;21.17;55.47;100132.16;5042559;28;20240;-61
2022/08/15 02:36:53;;;;;;;16.83;5.90;;;;;;;21.13;55.09;100124.31;5043773;28;20025;-61
2022/08/15 02:39:19;;;;;;;17.17;5.85;;;;;;;21.12;55.71;100128.81;5041720;28;20040;-60
2022/08/15 02:41:50;;;;;;;17.58;6.13;;;;;;;21.07;55.58;100128.19;5044602;28;20099;-61
2022/08/15 02:44:17;;;;;;;15.20;5.88;;;;;;;21.03;55.78;100129.31;5037557;28;20511;-62
2022/08/15 02:46:43;;;;;;;17.23;6.00;;;;;;;21.00;55.94;100132.13;5044790;28;20029;-62
2022/08/15 02:49:11;;;;;;;17.52;6.28;;;;;;;21.06;55.58;100142.56;5041590;28;20043;-61
2022/08/15 02:51:39;;;;;;;16.95;5.88;;;;;;;21.00;56.08;100145.56;5043839;28;20017;-60
2022/08/15 02:54:05;;;;;;;16.13;5.72;;;;;;;21.05;55.83;100146.19;5042038;28;20064;-63
2022/08/15 02:56:31;;;;;;;18.00;6.22;;;;;;;21.07;55.98;100155.03;5043047;28;20366;-60
2022/08/15 02:58:57;;;;;;;16.77;6.32;;;;;;;21.02;56.03;100143.69;5042618;28;20082;-61
2022/08/15 03:01:23;;;;;;;17.92;6.10;;;;;;;20.97;56.33;100145.72;5042060;28;20032;-61
2022/08/15 03:03:51;;;;;;;19.52;7.18;;;;;;;20.94;57.13;100138.69;5043693;28;20048;-63
2022/08/15 03:06:21;;;;;;;17.50;6.70;;;;;;;20.94;56.89;100148.56;5041217;28;20024;-64
2022/08/15 03:08:46;;;;;;;18.75;7.15;;;;;;;20.90;57.67;100137.97;5044184;28;20074;-65
2022/08/15 03:11:13;;;;;;;19.00;7.53;;;;;;;20.84;57.21;100142.78;5041034;28;20100;-65
2022/08/15 03:13:40;;;;;;;17.55;6.68;;;;;;;20.75;57.55;100138.75;5043844;28;20372;-66
2022/08/15 03:16:07;;;;;;;19.50;6.95;;;;;;;20.69;57.77;100149.75;5041815;28;20029;-67
2022/08/15 03:18:35;;;;;;;16.63;6.30;;;;;;;20.65;57.80;100148.13;5042729;28;20038;-61
2022/08/15 03:21:05;;;;;;;17.13;6.18;;;;;;;20.59;58.41;100153.81;5041952;28;20349;-60
2022/08/15 03:23:32;;;;;;;16.80;6.32;;;;;;;20.57;58.08;100148.50;5042796;28;20034;-65
2022/08/15 03:25:59;;;;;;;17.58;6.05;;;;;;;20.55;58.16;100150.41;5042593;28;20025;-61
2022/08/15 03:28:32;;;;;;;17.45;6.22;;;;;;;20.49;58.13;100138.16;5040423;28;20481;-61
2022/08/15 03:31:03;;;;;;;16.40;5.88;;;;;;;20.49;58.73;100138.16;5042464;28;20025;-61
2022/08/15 03:33:31;;;;;;;17.25;6.25;;;;;;;20.46;59.46;100134.72;5042369;28;20045;-62
2022/08/15 03:35:57;;;;;;;18.73;6.90;;;;;;;20.40;59.29;100145.75;5042698;28;20425;-61
2022/08/15 03:38:22;;;;;;;18.33;7.03;;;;;;;20.32;59.35;100141.63;5041504;28;20025;-61
2022/08/15 03:40:49;;;;;;;17.45;6.90;;;;;;;20.31;59.14;100150.59;5043749;28;20028;-61
2022/08/15 03:43:21;;;;;;;17.35;6.55;;;;;;;20.28;59.24;100145.41;5040173;28;20042;-62
2022/08/15 03:45:53;;;;;;;16.88;6.50;;;;;;;20.19;60.50;100137.78;5039325;28;20037;-63
2022/08/15 03:48:20;;;;;;;18.25;6.57;;;;;;;20.14;60.89;100138.00;5047959;28;20426;-62
2022/08/15 03:50:46;;;;;;;17.67;6.70;;;;;;;20.11;60.42;100146.19;5044253;28;20461;-62
2022/08/15 03:53:12;;;;;;;18.65;6.63;;;;;;;20.13;60.79;100156.88;5040222;28;20025;-62
2022/08/15 03:55:41;;;;;;;18.63;6.88;;;;;;;20.14;60.36;100156.78;5047424;28;20028;-60
2022/08/15 03:58:08;;;;;;;18.17;6.68;;;;;;;20.13;60.96;100152.34;5045042;28;20026;-60
2022/08/15 04:00:38;;;;;;;18.80;7.15;;;;;;;20.15;60.62;100152.28;5046200;28;20484;-60
2022/08/15 04:03:07;;;;;;;19.33;6.97;;;;;;;20.15;61.18;100155.84;5045003;28;20029;-64
2022/08/15 04:05:34;;;;;;;19.58;7.03;;;;;;;20.14;61.58;100151.41;5046398;28;20022;-65
2022/08/15 04:08:02;;;;;;;19.77;6.90;;;;;;;20.09;62.03;100156.13;5045562;28;20032;-62
2022/08/15 04:10:27;;;;;;;18.23;7.10;;;;;;;20.12;62.20;100149.75;5045689;28;20109;-66
2022/08/15 04:12:53;;;;;;;17.77;6.95;;;;;;;20.04;62.89;100147.44;5046428;28;20194;-64
2022/08/15 04:15:18;;;;;;;17.35;6.90;;;;;;;20.07;63.65;100146.41;5044129;28;20029;-62
2022/08/15 04:17:43;;;;;;;18.77;7.20;;;;;;;20.03;63.90;100149.22;5047425;28;20078;-66
2022/08/15 04:20:10;;;;;;;19.83;6.97;;;;;;;20.01;65.00;100147.56;5044330;28;20076;-65
2022/08/15 04:22:44;;;;;;;18.95;7.10;;;;;;;19.97;65.42;100149.50;5046565;28;20029;-66
2022/08/15 04:25:13;;;;;;;17.60;6.72;;;;;;;19.99;66.05;100155.69;5043746;28;20026;-67
2022/08/15 04:27:39;;;;;;;19.42;6.80;;;;;;;19.97;66.43;100151.31;5046777;28;20036;-67
2022/08/15 04:30:06;;;;;;;19.23;7.10;;;;;;;19.95;67.45;100153.19;5044565;28;20033;-67
2022/08/15 04:32:32;;;;;;;20.70;7.07;;;;;;;19.92;67.71;100154.22;5045435;28;20116;-64
2022/08/15 04:34:59;;;;;;;20.45;7.00;;;;;;;19.87;68.63;100150.00;5044245;28;20072;-67
2022/08/15 04:37:25;;;;;;;18.80;6.88;;;;;;;19.89;69.62;100156.16;5044611;28;20384;-69
2022/08/15 04:39:51;;;;;;;18.67;6.70;;;;;;;19.86;70.78;100165.19;5046124;28;20383;-69
2022/08/15 04:42:19;;;;;;;20.88;7.10;;;;;;;19.84;71.05;100156.38;5043448;28;20032;-69
2022/08/15 04:44:45;;;;;;;20.90;7.35;;;;;;;19.85;71.25;100158.97;5039182;28;20041;-69
2022/08/15 04:47:11;;;;;;;19.60;7.35;;;;;;;19.84;71.63;100151.88;5046433;28;20486;-69
2022/08/15 04:49:36;;;;;;;19.88;6.97;;;;;;;19.84;72.26;100159.91;5044258;28;20033;-69
2022/08/15 04:52:25;;;;;;;18.90;6.97;;;;;;;19.87;72.73;100163.41;5045461;28;20075;-69
2022/08/15 04:54:51;;;;;;;20.83;7.10;;;;;;;19.87;73.61;100156.22;5040504;28;20444;-69
2022/08/15 04:57:16;;;;;;;18.88;7.20;;;;;;;19.95;73.48;100158.56;5045025;28;20123;-69
2022/08/15 04:59:41;;;;;;;19.13;6.90;;;;;;;19.97;73.96;100157.56;5043055;28;20040;-69
2022/08/15 05:02:10;;;;;;;20.02;7.20;;;;;;;19.99;74.15;100170.88;5045960;28;20060;-68
2022/08/15 05:04:36;;;;;;;19.70;7.13;;;;;;;20.01;74.57;100164.53;5044043;28;20087;-67
2022/08/15 05:07:01;;;;;;;18.80;6.90;;;;;;;20.12;74.52;100168.53;5044952;28;20472;-68
2022/08/15 05:09:26;;;;;;;18.95;7.13;;;;;;;20.17;74.38;100170.06;5045153;28;20066;-68
2022/08/15 05:11:52;;;;;;;19.67;7.03;;;;;;;20.20;74.65;100172.59;5043302;28;20372;-67
2022/08/15 05:14:18;;;;;;;18.35;6.82;;;;;;;20.24;74.84;100176.03;5046287;28;20375;-68
2022/08/15 05:16:43;;;;;;;18.30;6.72;;;;;;;20.28;75.17;100166.00;5042969;28;20033;-68
2022/08/15 05:19:08;;;;;;;19.80;6.80;;;;;;;20.35;75.57;100167.47;5045580;28;20083;-66
2022/08/15 05:21:34;;;;;;;19.83;7.00;;;;;;;20.38;75.38;100172.69;5043965;28;20021;-66
2022/08/15 05:23:59;;;;;;;19.65;6.70;;;;;;;20.45;74.99;100192.06;5044359;28;20412;-66
2022/08/15 05:26:25;;;;;;;20.42;7.10;;;;;;;20.44;74.42;100176.88;5045015;28;20017;-65
2022/08/15 05:28:50;;;;;;;19.75;6.47;;;;;;;20.44;74.85;100184.94;5042990;28;20072;-65
2022/08/15 05:31:16;;;;;;;21.58;6.82;;;;;;;20.43;74.81;100186.75;5046011;28;20071;-66
2022/08/15 05:33:44;;;;;;;20.60;6.53;;;;;;;20.43;75.07;100193.94;5042935;28;20022;-66
2022/08/15 05:36:10;;;;;;;19.70;6.60;;;;;;;20.42;75.49;100203.81;5045522;28;20093;-66
2022/08/15 05:38:40;;;;;;;19.65;7.07;;;;;;;20.43;75.86;100192.13;5043053;28;20032;-66
2022/08/15 05:41:16;;;;;;;19.70;6.97;;;;;;;20.43;76.70;100200.19;5044933;28;20036;-66
2022/08/15 05:44:11;;;;;;;19.63;7.15;;;;;;;20.23;77.79;100190.38;5042351;28;20111;-65
2022/08/15 05:46:40;;;;;;;18.05;7.07;;;;;;;20.17;79.61;100188.84;5038549;28;20049;-61
2022/08/15 05:49:20;;;;;;;20.73;7.20;;;;;;;20.26;79.29;100192.06;5037858;28;21351;-68
2022/08/15 05:52:22;;;;;;;18.80;7.05;;;;;;;20.35;79.45;100199.66;5038781;28;20079;-63
2022/08/15 05:55:07;;;;;;;19.25;6.85;;;;;;;20.41;79.00;100196.69;4982203;28;20487;-62
2022/08/15 05:57:43;;;;;;;19.45;7.03;;;;;;;20.48;79.22;100198.13;4980946;28;20545;-62
2022/08/15 06:00:12;;;;;;;19.33;6.68;;;;;;;20.52;79.05;100199.75;4979526;28;20513;-60
2022/08/15 06:02:43;;;;;;;18.48;6.60;;;;;;;20.58;78.64;100205.78;4981459;28;20050;-59
2022/08/15 06:05:24;;;;;;;18.58;6.80;;;;;;;20.63;78.88;100209.09;4979249;28;20512;-59
2022/08/15 06:07:50;;;;;;;19.58;6.68;;;;;;;20.70;78.84;100202.53;4981601;28;20516;-59
2022/08/15 06:10:36;;;;;;;19.63;6.80;;;;;;;20.73;78.05;100210.44;4979586;28;20026;-59
2022/08/15 06:13:14;;;;;;;18.20;6.72;;;;;;;20.78;78.54;100216.47;4979386;28;20046;-59
2022/08/15 06:15:48;;;;;;;19.30;6.63;;;;;;;20.87;78.14;100212.47;4982461;28;20070;-59
2022/08/15 06:18:17;;;;;;;17.40;6.60;;;;;;;20.89;78.50;100215.94;4982301;28;20104;-59
2022/08/15 06:21:00;;;;;;;19.38;6.82;;;;;;;20.96;78.00;100214.69;4982960;28;20038;-61
2022/08/15 06:23:47;;;;;;;20.98;7.25;;;;;;;21.02;78.13;100216.22;4979452;28;20034;-59
2022/08/15 06:26:25;;;;;;;18.98;6.72;;;;;;;21.02;78.41;100218.91;4981690;28;20035;-58
2022/08/15 06:29:03;;;;;;;21.45;7.10;;;;;;;21.11;78.66;100225.63;4975311;28;20035;-60
2022/08/15 06:31:32;;;;;;;18.77;7.20;;;;;;;21.19;78.35;100223.44;5012465;28;20054;-59
2022/08/15 06:34:29;;;;;;;18.70;6.82;;;;;;;21.19;78.64;100218.94;5034077;28;20067;-59
2022/08/15 06:37:13;;;;;;;19.42;7.30;;;;;;;21.21;78.70;100218.84;5032948;28;20029;-59
2022/08/15 06:39:39;;;;;;;18.63;7.10;;;;;;;21.23;78.88;100220.53;5030619;28;20035;-59
2022/08/15 06:42:04;;;;;;;18.55;6.78;;;;;;;21.20;79.23;100214.41;5030932;28;20112;-60
2022/08/15 06:44:31;;;;;;;20.90;7.13;;;;;;;21.21;79.47;100208.97;5030539;28;20099;-59
2022/08/15 06:47:07;;;;;;;19.58;7.10;;;;;;;21.20;80.10;100206.34;5031553;28;20041;-60
2022/08/15 06:49:36;;;;;;;19.55;6.88;;;;;;;21.27;80.23;100210.47;5030856;28;20491;-59
2022/08/15 06:52:02;;;;;;;19.13;7.40;;;;;;;21.38;79.15;100218.88;5032893;28;20068;-61
2022/08/15 06:54:29;;;;;;;18.77;7.00;;;;;;;21.40;79.74;100218.81;5030913;28;20498;-60
2022/08/15 06:57:15;;;;;;;20.20;6.80;;;;;;;21.39;78.95;100230.50;5033299;28;20025;-64
2022/08/15 07:00:15;;;;;;;18.02;6.80;;;;;;;21.46;78.55;100231.91;5030813;28;20362;-62
2022/08/15 07:03:15;;;;;;;18.63;6.50;;;;;;;21.56;79.28;100232.38;5030565;28;20025;-65
2022/08/15 07:05:55;;;;;;;17.70;6.32;;;;;;;21.65;79.39;100231.03;5029243;28;20091;-63
2022/08/15 07:08:33;;;;;;;20.33;6.82;;;;;;;21.77;79.02;100208.88;5030694;28;20132;-65
2022/08/15 07:11:17;;;;;;;18.38;7.10;;;;;;;21.76;78.60;100207.13;5031128;28;20082;-61
2022/08/15 07:14:01;;;;;;;21.23;7.22;;;;;;;21.84;79.00;100210.28;5035483;28;20129;-77
2022/08/15 07:16:48;;;;;;;19.05;7.05;;;;;;;21.87;78.44;100207.44;5026990;28;20033;-69
2022/08/15 07:19:14;;;;;;;18.90;7.53;;;;;;;21.84;78.78;100212.97;5029456;28;20370;-69
2022/08/15 07:21:40;;;;;;;20.00;7.25;;;;;;;21.91;78.92;100213.53;5036534;28;20101;-70
2022/08/15 07:24:11;;;;;;;19.00;6.93;;;;;;;21.90;78.44;100217.16;5035279;28;20021;-70
2022/08/15 07:26:44;;;;;;;19.92;7.88;;;;;;;21.91;77.95;100217.06;5038663;28;20554;-70
2022/08/15 07:29:13;;;;;;;20.67;7.72;;;;;;;21.92;79.20;100208.06;5033487;28;20029;-70
2022/08/15 07:31:39;;;;;;;19.65;7.90;;;;;;;22.07;78.24;100209.06;5034331;28;20380;-70
2022/08/15 07:34:22;;;;;;;18.63;7.13;;;;;;;22.18;78.87;100204.91;5034658;28;20018;-69
2022/08/15 07:36:58;;;;;;;21.52;7.60;;;;;;;22.38;77.72;100207.44;5034175;28;20025;-70
2022/08/15 07:39:45;;;;;;;20.73;7.40;;;;;;;22.40;77.46;100207.38;5034440;28;20069;-68
2022/08/15 07:42:20;;;;;;;20.02;7.82;;;;;;;22.45;77.35;100207.97;5040142;28;20365;-68
2022/08/15 07:44:57;;;;;;;20.25;8.10;;;;;;;22.50;77.45;100210.38;5045929;28;20489;-70
2022/08/15 07:47:31;;;;;;;22.73;8.68;;;;;;;22.51;77.37;100210.31;5045347;28;20025;-70
2022/08/15 07:50:17;;;;;;;19.50;8.38;;;;;;;22.55;77.12;100211.03;5047021;28;20037;-70
2022/08/15 07:52:55;;;;;;;21.55;9.48;;;;;;;22.49;76.22;100217.59;5042845;28;20029;-70
2022/08/15 07:55:21;;;;;;;20.75;9.68;;;;;;;22.42;76.70;100211.69;5045495;28;20555;-70
2022/08/15 07:58:02;;;;;;;21.02;8.73;;;;;;;22.51;76.82;100218.38;5045688;28;20029;-70
2022/08/15 08:00:30;;;;;;;21.00;8.88;;;;;;;22.60;75.77;100211.63;5044262;28;20460;-70
2022/08/15 08:03:10;;;;;;;21.38;8.75;;;;;;;22.69;76.63;100221.91;5046895;28;20468;-62
2022/08/15 08:05:58;;;;;;;21.80;9.13;;;;;;;22.87;74.78;100216.41;5040493;28;20025;-65
2022/08/15 08:08:35;;;;;;;21.67;8.82;;;;;;;23.01;74.50;100229.09;5045425;28;20392;-62
2022/08/15 08:11:08;;;;;;;21.73;9.10;;;;;;;23.12;73.58;100224.00;5039724;28;20049;-66
2022/08/15 08:14:01;;;;;;;21.80;8.90;;;;;;;23.19;72.80;100227.22;5040191;28;20029;-67
2022/08/15 08:16:34;;;;;;;21.00;8.70;;;;;;;23.29;72.15;100229.25;5046191;28;20033;-62
2022/08/15 08:18:59;;;;;;;;;;;;;;;23.44;70.82;100242.81;5044148;28;20021;-66
2022/08/15 08:22:02;;;;;;;19.90;8.53;;;;;;;23.40;71.56;100233.16;5046472;28;19920;-64
2022/08/15 08:24:41;;;;;;;21.33;8.35;;;;;;;23.58;71.82;100237.47;5045924;28;20063;-67
2022/08/15 08:27:21;;;;;;;19.55;8.13;;;;;;;23.49;70.05;100235.34;5040265;28;20427;-64
2022/08/15 08:30:10;;;;;;;21.67;8.10;;;;;;;23.45;71.31;100236.47;5045584;28;20061;-62
2022/08/15 08:32:47;;;;;;;18.70;7.97;;;;;;;23.37;72.04;100241.44;5040118;28;20139;-65
2022/08/15 08:35:13;;;;;;;20.50;7.72;;;;;;;23.38;72.21;100235.09;5042012;28;20018;-64
2022/08/15 08:37:48;;;;;;;19.55;7.57;;;;;;;23.39;72.01;100236.84;5046593;28;20468;-63
2022/08/15 08:43:46;;;;;;;19.40;7.47;;;;;;;23.27;71.84;100236.59;5045666;28;20060;-63
2022/08/15 08:46:30;;;;;;;19.58;7.53;;;;;;;23.25;72.83;100233.09;5041806;28;20025;-67
2022/08/15 08:49:04;;;;;;;20.38;8.00;;;;;;;23.13;72.59;100233.81;5044177;28;20033;-67
2022/08/15 08:51:39;;;;;;;21.20;7.68;;;;;;;23.04;73.92;100242.38;5046504;28;20066;-65
2022/08/15 08:54:18;;;;;;;22.00;7.68;;;;;;;23.06;73.20;100232.41;5039767;28;20026;-66
2022/08/15 08:56:48;;;;;;;23.58;8.15;;;;;;;22.97;74.10;100240.03;5041742;28;20025;-67
2022/08/15 08:59:37;;;;;;;22.45;8.50;;;;;;;23.02;73.86;100236.22;5045479;28;20048;-65
2022/08/15 09:02:27;;;;;;;19.42;7.78;;;;;;;22.93;73.94;100241.16;5039091;28;20064;-66
2022/08/15 09:04:57;;;;;;;20.17;7.90;;;;;;;22.75;75.00;100245.78;5043694;28;20029;-67
2022/08/15 09:07:31;;;;;;;22.33;8.13;;;;;;;22.68;75.83;100241.69;5042907;28;20035;-65
2022/08/15 09:10:00;;;;;;;20.85;7.90;;;;;;;22.68;75.82;100251.59;5045739;28;20037;-67
2022/08/15 09:15:24;;;;;;;20.13;8.45;;;;;;;22.78;76.33;100258.22;5042988;28;20087;-67
2022/08/15 09:17:55;;;;;;;20.38;8.20;;;;;;;22.93;75.55;100254.66;5043923;28;20056;-67
2022/08/15 09:20:40;;;;;;;20.70;7.82;;;;;;;23.09;74.64;100254.66;5044267;28;20112;-66
2022/08/15 09:23:11;;;;;;;19.48;7.70;;;;;;;23.40;74.80;100265.50;5038522;28;20366;-67
2022/08/15 09:25:55;;;;;;;23.80;8.40;;;;;;;23.51;74.07;100265.75;5039123;28;20076;-67
2022/08/15 09:28:31;;;;;;;21.30;8.30;;;;;;;23.43;73.18;100258.13;5042730;28;20065;-66
2022/08/15 09:31:04;;;;;;;20.85;8.60;;;;;;;23.48;73.16;100257.84;5043273;28;20038;-67
2022/08/15 09:33:44;;;;;;;20.83;8.63;;;;;;;23.56;74.42;100263.69;5038997;28;20021;-63
2022/08/15 09:36:40;;;;;;;21.90;9.10;;;;;;;23.14;75.34;100258.00;5032722;28;20025;-64
2022/08/15 09:39:17;;;;;;;19.92;8.73;;;;;;;23.03;76.38;100265.78;5033766;28;20425;-66
2022/08/15 09:41:48;;;;;;;20.45;8.52;;;;;;;23.29;75.40;100260.75;5029676;28;20098;-65
2022/08/15 09:44:31;;;;;;;21.63;9.30;;;;;;;23.55;73.83;100266.44;5029194;28;20050;-61
2022/08/15 09:47:28;;;;;;;20.80;8.82;;;;;;;23.73;72.68;100259.09;5032982;28;20033;-67
2022/08/15 09:50:17;;;;;;;20.25;8.50;;;;;;;24.22;70.86;100255.25;5030813;28;20112;-67
2022/08/15 09:53:10;;;;;;;19.42;8.43;;;;;;;24.46;69.24;100266.38;5031671;28;20044;-69
2022/08/15 09:55:46;;;;;;;20.35;8.88;;;;;;;24.40;70.31;100258.66;5033435;28;20476;-68
2022/08/15 09:58:23;;;;;;;21.25;9.43;;;;;;;24.29;69.99;100257.50;5032101;28;20052;-62
2022/08/15 10:01:06;;;;;;;20.85;9.15;;;;;;;24.43;69.12;100261.16;5029614;28;20026;-62
2022/08/15 10:03:44;;;;;;;20.33;9.15;;;;;;;24.11;70.34;100269.44;5032523;28;20038;-59
2022/08/15 10:06:15;;;;;;;20.45;8.75;;;;;;;24.37;69.86;100262.41;5030610;28;20071;-61
2022/08/15 10:08:53;;;;;;;21.02;8.88;;;;;;;24.60;69.04;100263.69;5032089;28;20036;-60
2022/08/15 10:11:39;;;;;;;22.75;9.38;;;;;;;24.71;68.61;100269.28;5030635;28;20036;-61
2022/08/15 10:14:25;;;;;;;20.83;8.90;;;;;;;24.93;66.87;100262.50;5032441;28;20033;-65
2022/08/15 10:16:53;;;;;;;22.02;9.18;;;;;;;24.87;66.12;100268.28;5031747;28;20068;-65
2022/08/15 10:19:30;;;;;;;21.70;9.80;;;;;;;24.85;67.00;100262.97;5032377;28;20056;-65
2022/08/15 10:22:03;;;;;;;20.52;8.60;;;;;;;25.05;66.42;100261.69;5032126;28;20384;-61
2022/08/15 10:24:38;;;;;;;20.48;8.70;;;;;;;24.89;66.71;100260.97;5035041;28;20017;-60
2022/08/15 10:27:09;;;;;;;20.67;8.32;;;;;;;24.90;66.27;100262.69;5032311;28;20448;-59
2022/08/15 10:29:39;;;;;;;20.92;8.82;;;;;;;24.88;66.08;100270.03;5030745;28;20060;-60
2022/08/15 10:32:21;;;;;;;19.48;8.02;;;;;;;24.85;66.85;100262.13;5033888;28;20033;-62
2022/08/15 10:35:08;;;;;;;18.60;7.90;;;;;;;24.87;66.27;100268.28;5035205;28;20141;-60
2022/08/15 10:37:47;;;;;;;20.27;8.18;;;;;;;24.80;66.27;100262.44;5032332;28;20079;-61
2022/08/15 10:40:18;;;;;;;20.80;7.90;;;;;;;24.76;67.06;100254.63;5029648;28;20030;-60
2022/08/15 10:43:06;;;;;;;20.08;7.93;;;;;;;24.83;66.79;100264.94;5031530;28;20041;-59
2022/08/15 10:45:41;;;;;;;19.15;7.55;;;;;;;24.81;67.29;100264.13;5029698;28;20407;-60
2022/08/15 10:48:38;;;;;;;20.88;7.88;;;;;;;24.81;66.63;100276.78;5030802;28;20392;-60
2022/08/15 10:51:22;;;;;;;19.98;7.68;;;;;;;24.51;67.70;100267.81;5030385;28;20044;-60
2022/08/15 10:54:02;;;;;;;20.88;7.80;;;;;;;24.65;66.88;100275.06;5028167;28;20029;-62
2022/08/15 10:56:33;;;;;;;19.15;7.35;;;;;;;24.55;67.27;100273.88;5031877;28;20112;-67
2022/08/15 10:59:09;;;;;;;19.52;7.88;;;;;;;24.42;67.57;100279.22;5033972;28;20106;-68
2022/08/15 11:01:37;;;;;;;20.33;8.10;;;;;;;24.15;68.61;100279.94;5028467;28;20041;-60
2022/08/15 11:04:08;;;;;;;23.13;8.40;;;;;;;24.07;70.28;100278.66;5034952;28;20072;-63
2022/08/15 11:06:48;;;;;;;21.17;8.05;;;;;;;24.00;69.51;100279.06;5033194;28;20368;-62
2022/08/15 11:09:18;;;;;;;21.30;7.88;;;;;;;23.79;71.26;100274.91;5039663;28;20033;-62
2022/08/15 11:11:51;;;;;;;20.80;7.72;;;;;;;23.75;71.02;100278.75;5043211;28;20159;-62
2022/08/15 11:14:24;;;;;;;20.63;8.00;;;;;;;23.63;71.29;100274.97;5042351;28;20029;-60
2022/08/15 11:16:51;;;;;;;21.40;8.10;;;;;;;23.71;71.29;100275.38;5042223;28;20029;-60
2022/08/15 11:19:38;;;;;;;19.67;7.95;;;;;;;23.88;70.10;100277.06;5041989;28;20030;-61
2022/08/15 11:22:08;;;;;;;19.48;7.70;;;;;;;23.92;70.09;100270.53;5036806;28;20026;-64
2022/08/15 11:24:39;;;;;;;32.03;9.85;;;;;;;24.07;70.72;100278.66;5035487;28;20029;-64
2022/08/15 11:27:21;;;;;;;20.23;8.03;;;;;;;24.23;69.84;100270.50;5036754;28;20030;-62
2022/08/15 11:29:48;;;;;;;;;;;;;;;24.46;68.16;100278.03;5040029;28;20284;-61
2022/08/15 11:32:29;;;;;;;18.83;7.68;;;;;;;24.51;67.91;100277.75;5042766;28;19924;-60
2022/08/15 11:34:55;;;;;;;21.55;7.65;;;;;;;24.54;65.66;100277.56;5043246;28;20028;-60
2022/08/15 11:37:24;;;;;;;20.83;7.90;;;;;;;24.54;66.36;100280.28;5042210;28;20056;-63
2022/08/15 11:39:58;;;;;;;20.15;7.82;;;;;;;24.71;65.52;100276.50;5041980;28;20117;-62
2022/08/15 11:42:27;;;;;;;19.77;7.82;;;;;;;24.68;68.21;100277.59;5041771;28;20025;-63
2022/08/15 11:45:03;;;;;;;19.48;7.78;;;;;;;24.67;66.79;100275.84;5042455;28;20045;-65
2022/08/15 11:47:32;;;;;;;21.60;7.72;;;;;;;24.86;65.70;100288.19;5039657;28;20041;-67